Colstrip, MT

10:59 AM MDT on August 24, 2016 (GMT -0600)
Water Plant | | Change Station

Elev 3255 ft 45.89 °N, 106.63 °W | Updated 6 minutes ago

Overcast
Overcast
63.5 °F
Feels Like 63.5 °F
N
7.0
Wind Variable Wind from WNW
Gusts 14.0 mph

Today
High -- | Low -- °F
--% Chance of Precip.
Yesterday
High -- | Low -- °F
Precip. -- in
Pressure 30.16 in
Visibility 10.0 miles
Clouds Mostly Cloudy 4400 ft
Overcast 5500 ft
Dew Point 47 °F
Humidity 54%
Rainfall 0.00 in
Snow Depth Not available.
6:18 AM 7:58 PM
Waning Gibbous, 55% visible
METAR KMLS 241653Z AUTO 32017KT 10SM BKN044 OVC055 18/08 A3018 RMK AO2 SLP212 T01830078
Pressure 30.16 in
Visibility 10.0 miles
Clouds Mostly Cloudy 4400 ft
Overcast 5500 ft
Dew Point 47 °F
Humidity 54%
Rainfall 0.00 in
Snow Depth Not available.
6:18 AM 7:58 PM
Waning Gibbous, 55% visible
METAR KMLS 241653Z AUTO 32017KT 10SM BKN044 OVC055 18/08 A3018 RMK AO2 SLP212 T01830078

10-Day Weather Forecast

Almanac

Astronomy

Aug. 24, 2016 Rise Set
Actual Time
Civil Twilight
Nautical Twilight
Astronomical Twilight
Moon
Length of Visible Light
Length of Day
Tomorrow will be .
, % of the Moon is Illuminated

Today's Extremes

State Highs State Lows

Community

WunderPhotos

Upload Photos

1,934,652 photos uploaded!

WunderBlog® & News

Nearby

Air Quality

  Air Quality AQ Index Pollutant
Not available.

Snow Depth

Station Depth Elevation

Earthquake Activity

City Distance Mag. Time & Date
Minimum magnitude displayed is 2.5.

Coastal Water Temperatures

Place Temperature

Stations

Nearby Weather Stations

Station Location Temp. Windchill Dew Point Humidity Wind Precip. Elev Updated Type
                   

Watches & Warnings

There are currently no watches in effect.